createdAt,value
2022-07-26T00:00:12.857Z,25.40
2022-07-26T00:02:47.403Z,25.37
2022-07-26T00:05:15.818Z,25.37
2022-07-26T00:07:42.869Z,25.38
2022-07-26T00:10:09.851Z,25.36
2022-07-26T00:12:36.830Z,25.37
2022-07-26T00:15:05.784Z,25.36
2022-07-26T00:17:32.686Z,25.35
2022-07-26T00:19:59.349Z,25.35
2022-07-26T00:22:35.681Z,25.35
2022-07-26T00:25:07.427Z,25.35
2022-07-26T00:27:37.199Z,25.33
2022-07-26T00:30:08.000Z,25.35
2022-07-26T00:32:35.047Z,25.33
2022-07-26T00:35:01.788Z,25.32
2022-07-26T00:37:28.520Z,25.32
2022-07-26T00:39:55.210Z,25.30
2022-07-26T00:42:22.031Z,25.30
2022-07-26T00:44:49.062Z,25.30
2022-07-26T00:47:16.234Z,25.29
2022-07-26T00:49:43.894Z,25.29
2022-07-26T00:52:11.229Z,25.28
2022-07-26T00:54:39.386Z,25.28
2022-07-26T00:57:06.703Z,25.28
2022-07-26T00:59:33.659Z,25.27
2022-07-26T01:02:03.413Z,25.27
2022-07-26T01:04:30.166Z,25.26
2022-07-26T01:06:57.104Z,25.26
2022-07-26T01:09:24.286Z,25.26
2022-07-26T01:11:51.581Z,25.26
2022-07-26T01:14:22.748Z,25.25
2022-07-26T01:16:50.022Z,25.24
2022-07-26T01:19:17.150Z,25.25
2022-07-26T01:21:44.048Z,25.23
2022-07-26T01:24:11.191Z,25.25
2022-07-26T01:26:38.377Z,25.22
2022-07-26T01:29:05.518Z,25.23
2022-07-26T01:31:32.415Z,25.21
2022-07-26T01:33:59.442Z,25.22
2022-07-26T01:36:26.146Z,25.21
2022-07-26T01:38:52.839Z,25.21
2022-07-26T01:41:20.753Z,25.20
2022-07-26T01:44:05.650Z,25.19
2022-07-26T01:46:32.671Z,25.18
2022-07-26T01:49:00.389Z,25.18
2022-07-26T01:51:27.774Z,25.18
2022-07-26T01:53:54.534Z,25.17
2022-07-26T01:56:21.300Z,25.17
2022-07-26T01:58:47.964Z,25.17
2022-07-26T02:01:14.740Z,25.17
2022-07-26T02:03:41.410Z,25.16
2022-07-26T02:06:08.440Z,25.16
2022-07-26T02:08:35.090Z,25.15
2022-07-26T02:11:03.686Z,25.15
2022-07-26T02:13:30.998Z,25.14
2022-07-26T02:15:59.129Z,25.14
2022-07-26T02:18:28.364Z,25.14
2022-07-26T02:20:55.392Z,25.13
2022-07-26T02:23:23.660Z,25.13
2022-07-26T02:25:50.402Z,25.12
2022-07-26T02:28:17.382Z,25.12
2022-07-26T02:30:45.018Z,25.11
2022-07-26T02:33:11.897Z,25.11
2022-07-26T02:35:38.863Z,25.11
2022-07-26T02:38:07.161Z,25.11
2022-07-26T02:40:34.970Z,25.12
2022-07-26T02:43:01.832Z,25.11
2022-07-26T02:45:28.804Z,25.11
2022-07-26T02:47:55.954Z,25.11
2022-07-26T02:50:24.901Z,25.12
2022-07-26T02:52:52.312Z,25.12
2022-07-26T02:55:24.064Z,25.13
2022-07-26T02:57:50.749Z,25.13
2022-07-26T03:00:20.496Z,25.15
2022-07-26T03:02:49.207Z,25.13
2022-07-26T03:05:16.119Z,25.14
2022-07-26T03:07:42.830Z,25.13
2022-07-26T03:10:09.668Z,25.12
2022-07-26T03:12:36.469Z,25.11
2022-07-26T03:15:03.408Z,25.11
2022-07-26T03:17:30.094Z,25.10
2022-07-26T03:19:59.111Z,25.09
2022-07-26T03:22:25.765Z,25.09
2022-07-26T03:24:52.501Z,25.08
2022-07-26T03:27:19.247Z,25.07
2022-07-26T03:29:45.942Z,25.07
2022-07-26T03:32:12.714Z,25.03
2022-07-26T03:34:39.383Z,25.05
2022-07-26T03:37:06.187Z,25.05
2022-07-26T03:39:32.971Z,25.07
2022-07-26T03:41:59.721Z,25.05
2022-07-26T03:44:26.377Z,25.06
2022-07-26T03:46:53.147Z,25.05
2022-07-26T03:49:19.995Z,25.05
2022-07-26T03:51:46.699Z,25.05
2022-07-26T03:54:13.465Z,25.05
2022-07-26T03:56:40.793Z,25.05
2022-07-26T03:59:09.310Z,25.05
2022-07-26T04:01:41.836Z,25.03
2022-07-26T04:04:11.246Z,25.03
2022-07-26T04:06:39.113Z,25.03
2022-07-26T04:09:06.911Z,25.02
2022-07-26T04:11:35.003Z,25.01
2022-07-26T04:14:02.059Z,25.00
2022-07-26T04:16:28.803Z,25.00
2022-07-26T04:18:55.733Z,24.99
2022-07-26T04:21:22.684Z,24.98
2022-07-26T04:23:51.550Z,24.97
2022-07-26T04:26:20.133Z,24.97
2022-07-26T04:28:46.935Z,24.98
2022-07-26T04:31:13.722Z,24.97
2022-07-26T04:33:40.454Z,24.96
2022-07-26T04:36:07.481Z,24.95
2022-07-26T04:38:34.174Z,24.95
2022-07-26T04:41:00.914Z,24.95
2022-07-26T04:43:27.611Z,24.94
2022-07-26T04:45:54.466Z,24.93
2022-07-26T04:48:21.175Z,24.93
2022-07-26T04:50:47.846Z,24.93
2022-07-26T04:53:14.702Z,24.91
2022-07-26T04:55:42.053Z,24.91
2022-07-26T04:58:09.328Z,24.90
2022-07-26T05:00:56.536Z,24.91
2022-07-26T05:03:25.339Z,24.89
2022-07-26T05:05:52.298Z,24.89
2022-07-26T05:08:19.014Z,24.89
2022-07-26T05:10:45.931Z,24.89
2022-07-26T05:13:12.794Z,24.87
2022-07-26T05:15:39.523Z,24.88
2022-07-26T05:18:13.623Z,24.86
2022-07-26T05:20:40.746Z,24.86
2022-07-26T05:23:07.593Z,24.85
2022-07-26T05:25:34.651Z,24.83
2022-07-26T05:28:01.388Z,24.83
2022-07-26T05:30:28.204Z,24.83
2022-07-26T05:32:55.010Z,24.82
2022-07-26T05:35:21.969Z,24.82
2022-07-26T05:37:48.819Z,24.81
2022-07-26T05:40:15.707Z,24.79
2022-07-26T05:42:42.483Z,24.78
2022-07-26T05:45:09.767Z,24.69
2022-07-26T05:47:36.601Z,24.60
2022-07-26T05:50:04.792Z,24.49
2022-07-26T05:52:31.451Z,24.41
2022-07-26T05:54:58.492Z,24.35
2022-07-26T05:57:25.181Z,24.33
2022-07-26T05:59:51.869Z,24.30
2022-07-26T06:02:18.658Z,24.27
2022-07-26T06:04:47.371Z,24.25
2022-07-26T06:07:14.592Z,24.19
2022-07-26T06:09:41.308Z,24.15
2022-07-26T06:12:08.171Z,24.11
2022-07-26T06:14:35.001Z,24.08
2022-07-26T06:17:04.489Z,24.11
2022-07-26T06:19:31.715Z,24.14
2022-07-26T06:21:58.402Z,24.13
2022-07-26T06:24:25.146Z,24.16
2022-07-26T06:26:56.798Z,24.22
2022-07-26T06:29:24.331Z,24.28
2022-07-26T06:31:59.448Z,24.33
2022-07-26T06:34:26.234Z,24.39
2022-07-26T06:36:52.953Z,24.44
2022-07-26T06:39:19.693Z,24.48
2022-07-26T06:41:46.763Z,24.51
2022-07-26T06:44:13.442Z,24.53
2022-07-26T06:46:40.239Z,24.56
2022-07-26T06:49:07.168Z,24.58
2022-07-26T06:51:34.075Z,24.60
2022-07-26T06:54:01.107Z,24.63
2022-07-26T06:56:27.983Z,24.64
2022-07-26T06:58:56.480Z,24.68
2022-07-26T07:01:58.003Z,24.69
2022-07-26T07:04:10.375Z,24.67
2022-07-26T07:06:37.451Z,24.70
2022-07-26T07:09:04.971Z,24.71
2022-07-26T07:11:35.008Z,24.71
2022-07-26T07:14:03.436Z,24.72
2022-07-26T07:16:30.451Z,24.75
2022-07-26T07:18:57.628Z,24.75
2022-07-26T07:21:24.317Z,24.76
2022-07-26T07:23:51.014Z,24.76
2022-07-26T07:26:20.259Z,24.76
2022-07-26T07:28:46.963Z,24.74
2022-07-26T07:31:15.511Z,24.75
2022-07-26T07:33:52.792Z,24.74
2022-07-26T07:36:20.823Z,24.73
2022-07-26T07:38:48.235Z,24.71
2022-07-26T07:41:15.028Z,24.71
2022-07-26T07:43:41.722Z,24.72
2022-07-26T07:46:08.458Z,24.74
2022-07-26T07:48:35.267Z,24.74
2022-07-26T07:51:01.973Z,24.72
2022-07-26T07:53:30.464Z,24.73
2022-07-26T07:55:57.865Z,24.75
2022-07-26T07:58:24.616Z,24.75
2022-07-26T08:00:55.085Z,24.73
2022-07-26T08:03:21.918Z,24.72
2022-07-26T08:05:49.612Z,24.74
2022-07-26T08:08:22.108Z,24.75
2022-07-26T08:10:52.168Z,24.74
2022-07-26T08:13:21.442Z,24.73
2022-07-26T08:15:52.133Z,24.74
2022-07-26T08:18:21.104Z,24.73
2022-07-26T08:20:50.930Z,24.73
2022-07-26T08:23:17.816Z,24.72
2022-07-26T08:25:55.702Z,24.72
2022-07-26T08:28:45.534Z,24.72
2022-07-26T08:31:11.682Z,24.71
2022-07-26T08:33:45.043Z,24.72
2022-07-26T08:36:13.932Z,24.73
2022-07-26T08:38:40.644Z,24.72
2022-07-26T08:41:07.373Z,24.71
2022-07-26T08:43:43.764Z,24.72
2022-07-26T08:46:24.083Z,24.71
2022-07-26T08:48:51.975Z,24.73
2022-07-26T08:51:20.553Z,24.73
2022-07-26T08:53:47.914Z,24.74
2022-07-26T08:56:14.813Z,24.73
2022-07-26T08:58:43.551Z,24.73
2022-07-26T09:01:13.303Z,24.74
2022-07-26T09:03:41.020Z,24.73
2022-07-26T09:06:19.685Z,24.74
2022-07-26T09:08:48.145Z,24.75
2022-07-26T09:11:23.963Z,24.74
2022-07-26T09:13:56.578Z,24.73
2022-07-26T09:16:23.901Z,24.74
2022-07-26T09:18:50.800Z,24.73
2022-07-26T09:21:33.899Z,24.74
2022-07-26T09:24:00.768Z,24.73
2022-07-26T09:26:28.454Z,24.74
2022-07-26T09:29:15.381Z,24.73
2022-07-26T09:31:42.135Z,24.62
2022-07-26T09:34:09.202Z,24.72
2022-07-26T09:36:54.291Z,24.74
2022-07-26T09:39:30.624Z,24.76
2022-07-26T09:42:26.750Z,24.78
2022-07-26T09:44:55.405Z,24.78
2022-07-26T09:47:22.720Z,24.79
2022-07-26T09:49:49.544Z,24.83
2022-07-26T09:52:21.023Z,24.86
2022-07-26T09:54:49.683Z,24.87
2022-07-26T09:57:18.167Z,24.87
2022-07-26T09:59:45.605Z,24.88
2022-07-26T10:02:14.221Z,24.89
2022-07-26T10:04:43.771Z,24.89
2022-07-26T10:07:10.893Z,24.88
2022-07-26T10:09:43.086Z,24.89
2022-07-26T10:12:14.213Z,24.90
2022-07-26T10:14:48.367Z,24.90
2022-07-26T10:17:29.210Z,24.92
2022-07-26T10:19:58.845Z,24.93
2022-07-26T10:22:34.295Z,24.92
2022-07-26T10:25:19.578Z,24.90
2022-07-26T10:27:50.440Z,24.91
2022-07-26T10:30:20.015Z,24.91
2022-07-26T10:33:07.975Z,24.89
2022-07-26T10:35:34.659Z,24.91
2022-07-26T10:38:04.048Z,24.91
2022-07-26T10:40:30.822Z,24.92
2022-07-26T10:43:38.861Z,24.91
2022-07-26T10:46:16.522Z,24.89
2022-07-26T10:48:59.703Z,24.90
2022-07-26T10:51:39.722Z,24.92
2022-07-26T10:54:09.194Z,24.91
2022-07-26T10:56:36.654Z,24.91
2022-07-26T10:59:04.941Z,24.92
2022-07-26T11:01:42.581Z,24.92
2022-07-26T11:04:19.237Z,24.91
2022-07-26T11:06:46.089Z,24.90
2022-07-26T11:09:13.372Z,24.90
2022-07-26T11:11:47.158Z,24.89
2022-07-26T11:14:16.246Z,24.88
2022-07-26T11:16:45.713Z,24.87
2022-07-26T11:19:19.885Z,24.87
2022-07-26T11:21:55.338Z,24.87
2022-07-26T11:24:22.315Z,24.86
2022-07-26T11:26:50.152Z,24.85
2022-07-26T11:29:26.609Z,24.85
2022-07-26T11:32:14.793Z,24.85
2022-07-26T11:34:45.638Z,24.83
2022-07-26T11:37:12.546Z,24.85
2022-07-26T11:39:39.764Z,24.84
2022-07-26T11:42:12.151Z,24.87
2022-07-26T11:44:38.920Z,24.86
2022-07-26T11:47:13.763Z,24.87
2022-07-26T11:50:00.893Z,24.87
2022-07-26T11:52:31.858Z,24.88
2022-07-26T11:54:59.095Z,24.88
2022-07-26T11:57:31.161Z,24.90
2022-07-26T11:59:58.515Z,24.90
2022-07-26T12:02:26.157Z,24.91
2022-07-26T12:05:13.973Z,24.89
2022-07-26T12:07:59.143Z,24.89
2022-07-26T12:10:26.703Z,24.89
2022-07-26T12:13:13.966Z,24.88
2022-07-26T12:15:45.259Z,24.89
2022-07-26T12:18:11.991Z,24.89
2022-07-26T12:20:38.687Z,24.89
2022-07-26T12:23:07.024Z,24.89
2022-07-26T12:25:37.457Z,24.90
2022-07-26T12:28:11.918Z,24.90
2022-07-26T12:30:38.670Z,24.90
2022-07-26T12:33:05.483Z,24.90
2022-07-26T12:35:35.546Z,24.91
2022-07-26T12:38:02.679Z,24.89
2022-07-26T12:40:30.992Z,24.89
2022-07-26T12:43:02.857Z,24.88
2022-07-26T12:45:34.736Z,24.88
2022-07-26T12:48:03.287Z,24.86
2022-07-26T12:50:31.746Z,24.85
2022-07-26T12:53:12.740Z,24.84
2022-07-26T12:55:39.836Z,24.83
2022-07-26T12:58:06.573Z,24.83
2022-07-26T13:00:33.270Z,24.83
2022-07-26T13:02:59.939Z,24.84
2022-07-26T13:05:26.647Z,24.83
2022-07-26T13:07:54.384Z,24.83
2022-07-26T13:10:36.900Z,24.84
2022-07-26T13:13:04.434Z,24.81
2022-07-26T13:15:36.996Z,24.82
2022-07-26T13:18:08.691Z,24.81
2022-07-26T13:20:38.738Z,24.80
2022-07-26T13:23:06.697Z,24.79
2022-07-26T13:25:39.873Z,24.78
2022-07-26T13:28:07.858Z,24.79
2022-07-26T13:30:37.333Z,24.80
2022-07-26T13:33:04.482Z,24.79
2022-07-26T13:35:31.193Z,24.79
2022-07-26T13:37:57.882Z,24.79
2022-07-26T13:40:30.691Z,24.80
2022-07-26T13:42:58.118Z,24.82
2022-07-26T13:45:24.805Z,24.82
2022-07-26T13:47:55.641Z,24.82
2022-07-26T13:50:22.878Z,24.83
2022-07-26T13:52:49.746Z,24.83
2022-07-26T13:55:16.475Z,24.83
2022-07-26T13:57:55.548Z,24.82
2022-07-26T14:00:24.884Z,24.82
2022-07-26T14:02:51.618Z,24.83
2022-07-26T14:05:18.926Z,24.83
2022-07-26T14:07:45.737Z,24.82
2022-07-26T14:10:12.452Z,24.83
2022-07-26T14:12:40.852Z,24.83
2022-07-26T14:15:15.169Z,24.83
2022-07-26T14:17:43.128Z,24.83
2022-07-26T14:20:10.393Z,24.82
2022-07-26T14:22:37.132Z,24.80
2022-07-26T14:25:04.007Z,24.80
2022-07-26T14:27:30.710Z,24.79
2022-07-26T14:29:57.453Z,24.79
2022-07-26T14:32:24.335Z,24.78
2022-07-26T14:34:51.097Z,24.77
2022-07-26T14:37:41.804Z,24.77
2022-07-26T14:40:06.115Z,24.75
2022-07-26T14:42:33.280Z,24.76
2022-07-26T14:45:00.044Z,24.77
2022-07-26T14:47:26.931Z,24.77
2022-07-26T14:49:53.627Z,24.76
2022-07-26T14:52:20.353Z,24.75
2022-07-26T14:54:47.128Z,24.74
2022-07-26T14:57:13.841Z,24.72
2022-07-26T14:59:40.509Z,24.71
2022-07-26T15:02:07.249Z,24.71
2022-07-26T15:04:33.966Z,24.71
2022-07-26T15:07:00.658Z,24.71
2022-07-26T15:09:27.426Z,24.72
2022-07-26T15:11:54.150Z,24.72
2022-07-26T15:14:20.879Z,24.71
2022-07-26T15:16:47.738Z,24.72
2022-07-26T15:19:14.526Z,24.71
2022-07-26T15:21:41.223Z,24.72
2022-07-26T15:24:09.874Z,24.72
2022-07-26T15:26:36.831Z,24.71
2022-07-26T15:29:03.538Z,24.72
2022-07-26T15:31:36.615Z,24.71
2022-07-26T15:34:04.752Z,24.73
2022-07-26T15:36:31.597Z,24.73
2022-07-26T15:39:05.216Z,24.75
2022-07-26T15:41:42.569Z,24.76
2022-07-26T15:44:10.407Z,24.78
2022-07-26T15:46:39.738Z,24.77
2022-07-26T15:49:07.562Z,24.78
2022-07-26T15:51:34.888Z,24.77
2022-07-26T15:54:03.113Z,24.72
2022-07-26T15:56:29.980Z,24.68
2022-07-26T15:58:56.948Z,24.65
2022-07-26T16:01:23.721Z,24.63
2022-07-26T16:03:50.632Z,24.66
2022-07-26T16:06:17.812Z,24.70
2022-07-26T16:09:13.464Z,24.75
2022-07-26T16:11:31.546Z,24.81
2022-07-26T16:14:00.973Z,24.86
2022-07-26T16:16:28.314Z,24.87
2022-07-26T16:18:55.976Z,24.91
2022-07-26T16:21:22.660Z,24.93
2022-07-26T16:23:51.015Z,24.95
2022-07-26T16:26:18.381Z,24.96
2022-07-26T16:28:45.197Z,24.93
2022-07-26T16:31:12.007Z,24.91
2022-07-26T16:33:46.059Z,24.88
2022-07-26T16:36:13.555Z,24.90
2022-07-26T16:38:40.302Z,24.91
2022-07-26T16:41:06.991Z,24.91
2022-07-26T16:43:34.701Z,24.91
2022-07-26T16:46:01.465Z,24.91
2022-07-26T16:48:28.319Z,24.89
2022-07-26T16:50:55.112Z,24.88
2022-07-26T16:53:21.846Z,24.87
2022-07-26T16:55:51.492Z,24.85
2022-07-26T16:58:19.149Z,24.82
2022-07-26T17:00:47.032Z,24.80
2022-07-26T17:03:15.660Z,24.79
2022-07-26T17:05:43.880Z,24.76
2022-07-26T17:08:10.775Z,24.76
2022-07-26T17:10:37.930Z,24.75
2022-07-26T17:13:04.662Z,24.74
2022-07-26T17:15:31.375Z,24.72
2022-07-26T17:17:58.228Z,24.70
2022-07-26T17:20:24.949Z,24.69
2022-07-26T17:22:51.725Z,24.68
2022-07-26T17:25:18.460Z,24.66
2022-07-26T17:27:45.269Z,24.64
2022-07-26T17:30:12.390Z,24.63
2022-07-26T17:32:39.301Z,24.63
2022-07-26T17:35:06.702Z,24.60
2022-07-26T17:37:36.992Z,24.61
2022-07-26T17:40:08.022Z,24.60
2022-07-26T17:42:35.559Z,24.61
2022-07-26T17:45:02.578Z,24.60
2022-07-26T17:47:30.378Z,24.60
2022-07-26T17:50:34.077Z,24.60
2022-07-26T17:52:50.223Z,24.58
2022-07-26T17:55:18.963Z,24.57
2022-07-26T17:57:47.903Z,24.50
2022-07-26T18:00:15.778Z,24.53
2022-07-26T18:02:42.544Z,24.56
2022-07-26T18:05:11.341Z,24.58
2022-07-26T18:07:38.556Z,24.60
2022-07-26T18:10:05.916Z,24.62
2022-07-26T18:12:32.730Z,24.63
2022-07-26T18:14:59.467Z,24.61
2022-07-26T18:17:26.462Z,24.64
2022-07-26T18:19:53.201Z,24.64
2022-07-26T18:22:19.901Z,24.66
2022-07-26T18:24:46.611Z,24.65
2022-07-26T18:27:13.359Z,24.63
2022-07-26T18:29:40.114Z,24.63
2022-07-26T18:32:07.102Z,24.64
2022-07-26T18:34:33.815Z,24.64
2022-07-26T18:37:00.519Z,24.64
2022-07-26T18:39:30.542Z,24.64
2022-07-26T18:41:59.792Z,24.64
2022-07-26T18:44:26.495Z,24.63
2022-07-26T18:46:53.245Z,24.63
2022-07-26T18:49:21.193Z,24.63
2022-07-26T18:51:48.920Z,24.65
2022-07-26T18:54:16.624Z,24.63
2022-07-26T18:56:43.443Z,24.60
2022-07-26T18:59:10.681Z,24.62
2022-07-26T19:01:37.626Z,24.61
2022-07-26T19:04:07.027Z,24.61
2022-07-26T19:06:34.850Z,24.61
2022-07-26T19:09:01.619Z,24.61
2022-07-26T19:11:29.739Z,24.60
2022-07-26T19:13:56.424Z,24.62
2022-07-26T19:16:23.362Z,24.60
2022-07-26T19:18:53.861Z,24.59
2022-07-26T19:21:23.761Z,24.60
2022-07-26T19:23:50.692Z,24.59
2022-07-26T19:26:17.397Z,24.59
2022-07-26T19:28:44.088Z,24.59
2022-07-26T19:31:10.909Z,24.58
2022-07-26T19:33:37.668Z,24.58
2022-07-26T19:36:04.483Z,24.53
2022-07-26T19:38:33.125Z,24.51
2022-07-26T19:41:00.553Z,24.49
2022-07-26T19:43:27.547Z,24.48
2022-07-26T19:45:54.300Z,24.46
2022-07-26T19:48:21.302Z,24.47
2022-07-26T19:50:48.024Z,24.48
2022-07-26T19:53:14.770Z,24.47
2022-07-26T19:55:42.595Z,24.46
2022-07-26T19:58:09.747Z,24.46
2022-07-26T20:00:36.488Z,24.45
2022-07-26T20:03:03.312Z,24.46
2022-07-26T20:05:30.100Z,24.43
2022-07-26T20:07:56.837Z,24.44
2022-07-26T20:10:27.336Z,24.44
2022-07-26T20:12:56.966Z,24.44
2022-07-26T20:15:23.735Z,24.45
2022-07-26T20:17:50.424Z,24.45
2022-07-26T20:20:18.062Z,24.47
2022-07-26T20:22:44.803Z,24.46
2022-07-26T20:25:11.667Z,24.47
2022-07-26T20:27:38.483Z,24.47
2022-07-26T20:30:06.096Z,24.47
2022-07-26T20:32:32.803Z,24.46
2022-07-26T20:34:59.569Z,24.47
2022-07-26T20:37:26.314Z,24.47
2022-07-26T20:39:53.029Z,24.48
2022-07-26T20:42:21.934Z,24.46
2022-07-26T20:44:48.892Z,24.47
2022-07-26T20:47:15.595Z,24.48
2022-07-26T20:49:42.259Z,24.48
2022-07-26T20:52:09.040Z,24.47
2022-07-26T20:54:35.848Z,24.47
2022-07-26T20:57:04.343Z,24.48
2022-07-26T20:59:32.511Z,24.47
2022-07-26T21:01:59.384Z,24.47
2022-07-26T21:04:26.324Z,24.46
2022-07-26T21:06:53.271Z,24.46
2022-07-26T21:09:20.019Z,24.46
2022-07-26T21:11:46.924Z,24.45
2022-07-26T21:14:13.858Z,24.45
2022-07-26T21:16:40.644Z,24.45
2022-07-26T21:19:07.529Z,24.45
2022-07-26T21:21:34.866Z,24.44
2022-07-26T21:24:01.609Z,24.45
2022-07-26T21:26:28.370Z,24.44
2022-07-26T21:28:55.085Z,24.44
2022-07-26T21:31:21.856Z,24.42
2022-07-26T21:33:48.791Z,24.43
2022-07-26T21:36:15.574Z,24.42
2022-07-26T21:38:42.455Z,24.42
2022-07-26T21:41:09.402Z,24.42
2022-07-26T21:43:40.062Z,24.41
2022-07-26T21:46:11.926Z,24.39
2022-07-26T21:48:39.540Z,24.40
2022-07-26T21:51:06.287Z,24.39
2022-07-26T21:53:32.978Z,24.35
2022-07-26T21:55:59.696Z,24.37
2022-07-26T21:58:27.999Z,24.35
2022-07-26T22:01:06.435Z,24.34
2022-07-26T22:03:35.881Z,24.34
2022-07-26T22:06:02.930Z,24.33
2022-07-26T22:08:29.775Z,24.33
2022-07-26T22:10:56.417Z,24.33
2022-07-26T22:13:23.226Z,24.34
2022-07-26T22:15:50.271Z,24.33
2022-07-26T22:18:17.114Z,24.32
2022-07-26T22:20:44.323Z,24.33
2022-07-26T22:23:12.567Z,24.34
2022-07-26T22:25:40.030Z,24.33
2022-07-26T22:28:07.988Z,24.32
2022-07-26T22:30:35.249Z,24.33
2022-07-26T22:33:03.288Z,24.33
2022-07-26T22:35:34.896Z,24.32
2022-07-26T22:38:06.827Z,24.32
2022-07-26T22:40:33.895Z,24.31
2022-07-26T22:43:00.624Z,24.30
2022-07-26T22:45:28.475Z,24.30
2022-07-26T22:47:56.580Z,24.30
2022-07-26T22:50:24.774Z,24.30
2022-07-26T22:52:52.158Z,24.29
2022-07-26T22:55:18.900Z,24.29
2022-07-26T22:57:46.072Z,24.29
2022-07-26T23:00:14.956Z,24.28
2022-07-26T23:02:42.088Z,24.29
2022-07-26T23:05:09.851Z,24.29
2022-07-26T23:07:37.356Z,24.28
2022-07-26T23:10:05.513Z,24.27
2022-07-26T23:12:32.323Z,24.26
2022-07-26T23:14:59.163Z,24.27
2022-07-26T23:17:25.874Z,24.25
2022-07-26T23:19:52.564Z,24.27
2022-07-26T23:22:19.229Z,24.25
2022-07-26T23:24:45.922Z,24.24
2022-07-26T23:27:15.485Z,24.23
2022-07-26T23:29:46.384Z,24.23
2022-07-26T23:32:15.024Z,24.23
2022-07-26T23:34:41.682Z,24.22
2022-07-26T23:37:08.445Z,24.23
2022-07-26T23:39:35.094Z,24.21
2022-07-26T23:42:03.055Z,24.22
2022-07-26T23:44:30.823Z,24.22
2022-07-26T23:46:58.351Z,24.20
2022-07-26T23:49:25.319Z,24.20
2022-07-26T23:51:52.117Z,24.19
2022-07-26T23:54:18.855Z,24.18
2022-07-26T23:56:45.798Z,24.17
2022-07-26T23:59:13.224Z,24.17
